Time;durP1;ratioP1;P1;durP2;ratioP2;P2;SDS_P1;SDS_P2;PMS_P1;PMS_P2;Temp;Humidity;BMP_temperature;BMP_pressure;BME280_temperature;BME280_humidity;BME280_pressure;Samples;Min_cycle;Max_cycle;Signal;HPM_P1;HPM_P2
2023/09/29 00:00:50;;;;;;;15.10;6.03;;;16.70;99.90;;;;;;4989868;28;20456;-67
2023/09/29 00:03:16;;;;;;;15.53;8.70;;;16.70;99.90;;;;;;4993651;28;20416;-69
2023/09/29 00:05:46;;;;;;;9.77;6.03;;;16.70;99.90;;;;;;4993763;28;20208;-68
2023/09/29 00:08:17;;;;;;;15.93;7.07;;;16.70;99.90;;;;;;4992504;28;20436;-67
2023/09/29 00:10:45;;;;;;;14.77;7.30;;;16.80;99.90;;;;;;4975897;28;20499;-67
2023/09/29 00:13:11;;;;;;;11.07;6.50;;;16.80;99.90;;;;;;4973120;28;20796;-67
2023/09/29 00:15:38;;;;;;;11.67;6.73;;;16.80;99.90;;;;;;4986666;28;20449;-67
2023/09/29 00:18:07;;;;;;;15.23;7.60;;;16.80;99.90;;;;;;4976207;28;20442;-69
2023/09/29 00:20:33;;;;;;;7.63;6.23;;;16.80;99.90;;;;;;4955467;28;20507;-67
2023/09/29 00:23:00;;;;;;;16.57;6.80;;;16.80;99.90;;;;;;4956940;28;20773;-68
2023/09/29 00:25:26;;;;;;;13.13;7.33;;;16.80;99.90;;;;;;4973882;28;20445;-69
2023/09/29 00:27:53;;;;;;;14.03;8.27;;;16.80;99.90;;;;;;4982502;28;20487;-70
2023/09/29 00:30:25;;;;;;;14.83;8.30;;;16.80;99.90;;;;;;4990738;28;20440;-70
2023/09/29 00:32:53;;;;;;;12.50;7.10;;;16.80;99.90;;;;;;4993415;28;20419;-69
2023/09/29 00:35:24;;;;;;;18.53;8.20;;;16.80;99.90;;;;;;4977488;28;20428;-67
2023/09/29 00:37:58;;;;;;;11.67;8.30;;;16.80;99.90;;;;;;4996874;28;20412;-67
2023/09/29 00:40:25;;;;;;;15.27;8.10;;;16.80;99.90;;;;;;4978764;28;20486;-69
2023/09/29 00:42:54;;;;;;;7.90;6.70;;;16.80;99.90;;;;;;4978740;28;20534;-69
2023/09/29 00:45:26;;;;;;;15.90;7.13;;;16.80;99.90;;;;;;4978926;28;20471;-67
2023/09/29 00:47:56;;;;;;;13.70;7.80;;;16.90;99.90;;;;;;4979393;28;20432;-66
2023/09/29 00:50:23;;;;;;;10.43;7.23;;;16.90;99.90;;;;;;4995204;28;20470;-69
2023/09/29 00:52:54;;;;;;;11.10;8.10;;;16.90;99.90;;;;;;4996963;28;20460;-67
2023/09/29 00:55:26;;;;;;;8.90;7.20;;;16.90;99.90;;;;;;4996745;28;20490;-67
2023/09/29 00:57:52;;;;;;;12.40;7.80;;;16.90;99.90;;;;;;4995663;28;20447;-67
2023/09/29 01:00:29;;;;;;;17.10;6.67;;;17.00;99.90;;;;;;4994571;28;20443;-67
2023/09/29 01:03:05;;;;;;;14.80;7.40;;;17.00;99.90;;;;;;4996631;28;20474;-69
2023/09/29 01:05:35;;;;;;;14.50;6.80;;;17.00;99.90;;;;;;4995844;28;21014;-70
2023/09/29 01:08:08;;;;;;;18.73;8.63;;;17.00;99.90;;;;;;4996076;28;20412;-67
2023/09/29 01:10:38;;;;;;;9.47;6.97;;;17.10;99.90;;;;;;4994403;28;20460;-66
2023/09/29 01:13:04;;;;;;;11.37;7.20;;;17.10;99.90;;;;;;4995373;28;20440;-67
2023/09/29 01:15:32;;;;;;;10.33;7.27;;;17.00;99.90;;;;;;4977441;28;20436;-68
2023/09/29 01:17:57;;;;;;;16.57;7.63;;;17.10;99.90;;;;;;4978407;28;20853;-67
2023/09/29 01:20:30;;;;;;;10.73;8.00;;;17.10;99.90;;;;;;4977656;28;20421;-67
2023/09/29 01:23:01;;;;;;;18.70;8.00;;;17.10;99.90;;;;;;4995589;28;20574;-67
2023/09/29 01:25:27;;;;;;;10.47;6.40;;;17.10;99.90;;;;;;4978693;28;20448;-67
2023/09/29 01:27:54;;;;;;;10.90;7.53;;;17.10;99.90;;;;;;4976969;28;20459;-67
2023/09/29 01:30:20;;;;;;;13.73;7.83;;;17.10;99.90;;;;;;4994384;28;20204;-69
2023/09/29 01:32:51;;;;;;;11.43;8.17;;;17.10;99.90;;;;;;4996046;28;20432;-69
2023/09/29 01:35:23;;;;;;;16.13;6.80;;;17.00;99.90;;;;;;4978638;28;20420;-67
2023/09/29 01:37:58;;;;;;;11.10;7.57;;;17.10;99.90;;;;;;4994958;28;20962;-67
2023/09/29 01:40:24;;;;;;;13.70;7.10;;;17.10;99.90;;;;;;4994314;28;20877;-70
2023/09/29 01:42:51;;;;;;;11.33;6.70;;;17.10;99.90;;;;;;4994203;28;20483;-67
2023/09/29 01:45:21;;;;;;;12.50;7.10;;;17.10;99.90;;;;;;4994366;28;20209;-67
2023/09/29 01:47:48;;;;;;;10.50;6.80;;;17.10;99.90;;;;;;4995969;28;20420;-67
2023/09/29 01:50:16;;;;;;;15.20;6.43;;;17.10;99.90;;;;;;4993335;28;20427;-67
2023/09/29 01:52:44;;;;;;;10.77;8.23;;;17.20;99.90;;;;;;4995588;28;20440;-68
2023/09/29 01:55:19;;;;;;;20.13;7.13;;;17.20;99.90;;;;;;4995571;28;20438;-67
2023/09/29 01:57:49;;;;;;;15.20;7.37;;;17.10;99.90;;;;;;4978168;28;20432;-70
2023/09/29 02:00:19;;;;;;;10.53;6.63;;;17.10;99.90;;;;;;4975953;28;20412;-69
2023/09/29 02:02:47;;;;;;;13.77;7.40;;;17.10;99.90;;;;;;4958558;28;20907;-69
2023/09/29 02:05:16;;;;;;;11.43;6.53;;;17.20;99.90;;;;;;4982854;28;20463;-67
2023/09/29 02:07:42;;;;;;;10.73;7.00;;;17.20;99.90;;;;;;4994485;28;20511;-67
2023/09/29 02:10:08;;;;;;;10.97;6.57;;;17.20;99.90;;;;;;4976954;28;20420;-68
2023/09/29 02:12:38;;;;;;;15.27;6.10;;;17.20;99.90;;;;;;4994958;28;20583;-75
2023/09/29 02:15:06;;;;;;;15.37;7.00;;;17.20;99.90;;;;;;4976462;28;20951;-74
2023/09/29 02:17:36;;;;;;;13.80;6.30;;;17.20;99.90;;;;;;4992891;28;20758;-67
2023/09/29 02:20:25;;;;;;;13.43;7.03;;;17.20;99.90;;;;;;4975769;28;20978;-67
2023/09/29 02:22:48;;;;;;;10.80;6.93;;;17.20;99.90;;;;;;4994897;28;20518;-67
2023/09/29 02:25:16;;;;;;;16.40;6.60;;;17.20;99.90;;;;;;4977896;28;20609;-67
2023/09/29 02:27:43;;;;;;;11.97;7.00;;;17.10;99.90;;;;;;4994921;28;20420;-69
2023/09/29 02:30:10;;;;;;;9.67;6.33;;;17.10;99.90;;;;;;4991043;28;20522;-71
2023/09/29 02:32:37;;;;;;;19.03;6.23;;;17.10;99.90;;;;;;4992628;28;20447;-69
2023/09/29 02:35:03;;;;;;;13.43;5.83;;;17.10;99.90;;;;;;4994644;28;20408;-69
2023/09/29 02:37:30;;;;;;;17.03;8.77;;;17.20;99.90;;;;;;4994847;28;20435;-66
2023/09/29 02:39:55;;;;;;;11.90;6.87;;;17.10;99.90;;;;;;4993892;28;20468;-67
2023/09/29 02:42:22;;;;;;;9.60;6.33;;;17.10;99.90;;;;;;4994705;28;20428;-70
2023/09/29 02:44:47;;;;;;;12.30;7.60;;;17.10;99.90;;;;;;4993524;28;20208;-68
2023/09/29 02:47:14;;;;;;;11.83;6.90;;;17.10;99.90;;;;;;4960679;28;20515;-67
2023/09/29 02:49:40;;;;;;;12.70;7.00;;;17.10;99.90;;;;;;4992651;28;20189;-70
2023/09/29 02:52:06;;;;;;;10.13;6.20;;;17.10;99.90;;;;;;4994367;28;20515;-69
2023/09/29 02:54:32;;;;;;;16.37;8.00;;;17.10;99.90;;;;;;4976854;28;20460;-70
2023/09/29 02:56:58;;;;;;;9.37;6.27;;;17.10;99.90;;;;;;4993683;28;20478;-67
2023/09/29 02:59:24;;;;;;;13.50;7.40;;;17.10;99.90;;;;;;4992569;28;20180;-67
2023/09/29 03:01:50;;;;;;;8.90;6.53;;;17.00;99.90;;;;;;4975171;28;20227;-69
2023/09/29 03:04:19;;;;;;;14.77;9.03;;;17.10;99.90;;;;;;4994562;28;20551;-67
2023/09/29 03:06:45;;;;;;;13.63;7.30;;;17.00;99.90;;;;;;4977198;28;20412;-67
2023/09/29 03:09:13;;;;;;;9.90;7.80;;;17.00;99.90;;;;;;4993754;28;20419;-67
2023/09/29 03:11:40;;;;;;;12.77;8.03;;;17.00;99.90;;;;;;4991878;28;20464;-67
2023/09/29 03:14:06;;;;;;;18.37;7.10;;;17.00;99.90;;;;;;4993068;28;21059;-67
2023/09/29 03:16:35;;;;;;;12.70;6.73;;;17.00;99.90;;;;;;4975865;28;20812;-67
2023/09/29 03:19:04;;;;;;;11.87;7.87;;;17.00;99.90;;;;;;4994051;28;20499;-67
2023/09/29 03:21:30;;;;;;;10.33;7.30;;;17.00;99.90;;;;;;4993354;28;20432;-69
2023/09/29 03:23:56;;;;;;;13.83;7.83;;;17.00;99.90;;;;;;4993894;28;20944;-67
2023/09/29 03:26:22;;;;;;;10.80;7.67;;;16.90;99.90;;;;;;4993319;28;20177;-69
2023/09/29 03:28:51;;;;;;;13.77;6.97;;;16.90;99.90;;;;;;4992764;28;20459;-67
2023/09/29 03:31:22;;;;;;;16.93;9.07;;;16.90;99.90;;;;;;4991844;28;20460;-67
2023/09/29 03:33:48;;;;;;;11.73;7.40;;;16.90;99.90;;;;;;4993965;28;20412;-69
2023/09/29 03:36:14;;;;;;;22.03;7.97;;;16.80;99.90;;;;;;4994006;28;20404;-67
2023/09/29 03:38:41;;;;;;;18.97;7.67;;;16.80;99.90;;;;;;4993862;28;20949;-69
2023/09/29 03:41:09;;;;;;;9.53;7.60;;;16.80;99.90;;;;;;4974436;28;20463;-67
2023/09/29 03:43:35;;;;;;;11.63;6.73;;;16.80;99.90;;;;;;4993479;28;20955;-77
2023/09/29 03:46:00;;;;;;;13.93;8.17;;;16.80;99.90;;;;;;4974008;28;20436;-69
2023/09/29 03:48:26;;;;;;;10.77;6.50;;;16.70;99.90;;;;;;4993824;28;20633;-68
2023/09/29 03:50:53;;;;;;;12.23;7.10;;;16.70;99.90;;;;;;4992795;28;20205;-70
2023/09/29 03:53:19;;;;;;;11.87;6.87;;;16.70;99.90;;;;;;4993665;28;20184;-69
2023/09/29 03:55:45;;;;;;;14.50;8.13;;;16.70;99.90;;;;;;4976426;28;20428;-66
2023/09/29 03:58:11;;;;;;;11.20;7.40;;;16.60;99.90;;;;;;4976450;28;20264;-69
2023/09/29 04:00:36;;;;;;;12.93;8.30;;;16.60;99.90;;;;;;4990013;28;20185;-67
2023/09/29 04:03:02;;;;;;;15.13;8.83;;;16.60;99.90;;;;;;4993307;28;20177;-69
2023/09/29 04:05:28;;;;;;;9.73;6.83;;;16.60;99.90;;;;;;4993675;28;20216;-66
2023/09/29 04:07:56;;;;;;;14.13;7.70;;;16.50;99.90;;;;;;4975072;28;20440;-67
2023/09/29 04:10:21;;;;;;;10.00;7.47;;;16.50;99.90;;;;;;4996010;28;20630;-66
2023/09/29 04:12:47;;;;;;;10.10;7.03;;;16.50;99.90;;;;;;4997609;28;20446;-67
2023/09/29 04:15:14;;;;;;;13.30;7.77;;;16.50;99.90;;;;;;4995275;28;20185;-69
2023/09/29 04:17:40;;;;;;;15.93;10.87;;;16.50;99.90;;;;;;4978201;28;20440;-67
2023/09/29 04:20:07;;;;;;;14.60;8.00;;;16.50;99.90;;;;;;4974167;28;20537;-69
2023/09/29 04:22:34;;;;;;;12.53;8.90;;;16.50;99.90;;;;;;4996891;28;20431;-69
2023/09/29 04:25:00;;;;;;;11.57;7.50;;;16.50;99.90;;;;;;4997116;28;20459;-70
2023/09/29 04:27:26;;;;;;;15.40;8.40;;;16.40;99.90;;;;;;4979856;28;21000;-69
2023/09/29 04:29:52;;;;;;;13.13;8.73;;;16.40;99.90;;;;;;4995375;28;20507;-68
2023/09/29 04:32:18;;;;;;;9.80;7.60;;;16.50;99.90;;;;;;4996130;28;20666;-66
2023/09/29 04:34:44;;;;;;;11.40;8.50;;;16.50;99.90;;;;;;4997230;28;20419;-67
2023/09/29 04:37:10;;;;;;;11.13;8.40;;;16.40;99.90;;;;;;4979764;28;20183;-67
2023/09/29 04:39:36;;;;;;;12.97;7.27;;;16.50;99.90;;;;;;4995480;28;20495;-69
2023/09/29 04:42:04;;;;;;;16.17;7.73;;;16.40;99.90;;;;;;4995730;28;20455;-66
2023/09/29 04:44:31;;;;;;;13.00;6.93;;;16.40;99.90;;;;;;4995622;28;20581;-68
2023/09/29 04:46:56;;;;;;;8.60;7.80;;;16.40;99.90;;;;;;4995843;28;20439;-66
2023/09/29 04:49:22;;;;;;;12.23;7.97;;;16.40;99.90;;;;;;4979046;28;20912;-69
2023/09/29 04:51:48;;;;;;;10.43;8.03;;;16.40;99.90;;;;;;4995995;28;20199;-67
2023/09/29 04:54:14;;;;;;;11.23;7.77;;;16.40;99.90;;;;;;4963232;28;20176;-67
2023/09/29 04:56:39;;;;;;;14.37;8.37;;;16.40;99.90;;;;;;4996823;28;20794;-67
2023/09/29 04:59:06;;;;;;;15.70;7.40;;;16.40;99.90;;;;;;4991821;28;20272;-73
2023/09/29 05:01:32;;;;;;;12.17;8.47;;;16.40;99.90;;;;;;4984680;28;20625;-67
2023/09/29 05:03:58;;;;;;;8.40;7.33;;;16.40;99.90;;;;;;4970970;28;20468;-67
2023/09/29 05:06:24;;;;;;;9.43;8.50;;;16.40;99.90;;;;;;4984491;28;20197;-78
2023/09/29 05:08:50;;;;;;;11.60;7.80;;;16.40;99.90;;;;;;4967990;28;20434;-75
2023/09/29 05:11:24;;;;;;;13.90;8.40;;;16.40;99.90;;;;;;4958694;28;20461;-67
2023/09/29 05:13:51;;;;;;;14.43;10.13;;;16.50;99.90;;;;;;4985856;28;20440;-66
2023/09/29 05:16:17;;;;;;;12.70;9.70;;;16.50;99.90;;;;;;4984443;28;20433;-69
2023/09/29 05:18:45;;;;;;;13.90;10.40;;;16.50;99.90;;;;;;4968237;28;20792;-73
2023/09/29 05:21:11;;;;;;;14.97;11.47;;;16.50;99.90;;;;;;4994543;28;20435;-70
2023/09/29 05:23:37;;;;;;;14.93;10.87;;;16.60;99.90;;;;;;4996254;28;20881;-67
2023/09/29 05:26:07;;;;;;;11.73;10.43;;;16.60;99.90;;;;;;4996293;28;20448;-66
2023/09/29 05:28:34;;;;;;;14.10;10.57;;;16.60;99.90;;;;;;4995222;28;20544;-69
2023/09/29 05:31:00;;;;;;;10.40;9.40;;;16.60;99.90;;;;;;4993748;28;20491;-66
2023/09/29 05:33:26;;;;;;;16.20;11.97;;;16.70;99.90;;;;;;4996164;28;20497;-69
2023/09/29 05:35:52;;;;;;;19.03;12.43;;;16.70;99.90;;;;;;4978514;28;20472;-69
2023/09/29 05:38:18;;;;;;;14.67;10.27;;;16.70;99.90;;;;;;4995580;28;20932;-68
2023/09/29 05:40:47;;;;;;;18.37;11.10;;;16.70;99.90;;;;;;4993858;28;20183;-66
2023/09/29 05:43:12;;;;;;;14.10;11.00;;;16.80;99.90;;;;;;4977967;28;20435;-69
2023/09/29 05:45:39;;;;;;;13.70;12.30;;;16.80;99.90;;;;;;4993790;28;20948;-67
2023/09/29 05:48:06;;;;;;;13.50;11.13;;;16.80;99.90;;;;;;4978332;28;20188;-69
2023/09/29 05:50:32;;;;;;;12.40;11.13;;;16.80;99.90;;;;;;4977975;28;20420;-66
2023/09/29 05:52:58;;;;;;;14.30;12.23;;;16.80;99.90;;;;;;4978465;28;20419;-65
2023/09/29 05:55:24;;;;;;;15.33;11.50;;;16.90;99.90;;;;;;4995614;28;20424;-65
2023/09/29 05:57:50;;;;;;;16.40;10.67;;;16.90;99.90;;;;;;4994903;28;20176;-65
2023/09/29 06:00:17;;;;;;;15.80;11.40;;;16.90;99.90;;;;;;4974875;28;20455;-68
2023/09/29 06:02:43;;;;;;;16.80;10.90;;;17.00;99.90;;;;;;4995508;28;20428;-68
2023/09/29 06:05:11;;;;;;;11.90;10.70;;;17.00;99.90;;;;;;4995485;28;20448;-66
2023/09/29 06:07:37;;;;;;;15.70;11.40;;;17.00;99.90;;;;;;4994371;28;20427;-68
2023/09/29 06:10:04;;;;;;;20.07;11.60;;;17.10;99.90;;;;;;4977328;28;20397;-69
2023/09/29 06:12:30;;;;;;;16.17;11.20;;;17.10;99.90;;;;;;4977845;28;20549;-67
2023/09/29 06:14:56;;;;;;;14.83;11.67;;;17.20;99.90;;;;;;4994167;28;20528;-67
2023/09/29 06:17:22;;;;;;;17.00;11.93;;;17.10;99.90;;;;;;4994222;28;20531;-68
2023/09/29 06:19:49;;;;;;;16.80;11.10;;;17.20;99.90;;;;;;4993529;28;20442;-67
2023/09/29 06:22:14;;;;;;;21.50;11.97;;;17.20;99.90;;;;;;4977625;28;20428;-69
2023/09/29 06:24:42;;;;;;;14.50;10.73;;;17.20;99.90;;;;;;4995322;28;20849;-68
2023/09/29 06:27:07;;;;;;;15.07;12.07;;;17.20;99.90;;;;;;4995142;28;20187;-68
2023/09/29 06:29:33;;;;;;;14.17;11.50;;;17.30;99.90;;;;;;4975217;28;20798;-78
2023/09/29 06:31:59;;;;;;;13.60;12.20;;;17.30;99.90;;;;;;4993422;28;20283;-67
2023/09/29 06:34:25;;;;;;;13.50;12.10;;;17.40;99.90;;;;;;4977123;28;20394;-69
2023/09/29 06:36:50;;;;;;;12.53;11.30;;;17.40;99.90;;;;;;4976833;28;20192;-68
2023/09/29 06:39:16;;;;;;;18.97;11.50;;;17.40;99.90;;;;;;4993541;28;20227;-71
2023/09/29 06:41:42;;;;;;;14.43;11.50;;;17.40;99.90;;;;;;4993155;28;20216;-68
2023/09/29 06:44:08;;;;;;;15.70;12.23;;;17.40;99.90;;;;;;4976529;28;20200;-70
2023/09/29 06:46:34;;;;;;;13.43;11.90;;;17.50;99.90;;;;;;4994437;28;20188;-66
2023/09/29 06:49:01;;;;;;;14.43;11.43;;;17.50;99.90;;;;;;4994862;28;20400;-66
2023/09/29 06:51:27;;;;;;;16.73;11.50;;;17.50;99.90;;;;;;4976417;28;20614;-68
2023/09/29 06:53:54;;;;;;;11.97;10.60;;;17.50;99.90;;;;;;4993860;28;20494;-66
2023/09/29 06:56:20;;;;;;;15.13;13.27;;;17.50;99.90;;;;;;4977203;28;20184;-67
2023/09/29 06:58:46;;;;;;;15.27;11.40;;;17.50;99.90;;;;;;4977262;28;20413;-67
2023/09/29 07:01:13;;;;;;;14.80;12.53;;;17.60;99.90;;;;;;4993891;28;20534;-67
2023/09/29 07:03:39;;;;;;;13.97;11.90;;;17.60;99.90;;;;;;4961197;28;20415;-68
2023/09/29 07:06:06;;;;;;;19.03;12.23;;;17.60;99.90;;;;;;4994581;28;20440;-66
2023/09/29 07:08:32;;;;;;;14.10;12.00;;;17.60;99.90;;;;;;4994570;28;20420;-68
2023/09/29 07:10:58;;;;;;;18.00;11.50;;;17.60;99.90;;;;;;4993719;28;20851;-66
2023/09/29 07:13:24;;;;;;;15.33;12.30;;;17.60;99.90;;;;;;4993474;28;20205;-69
2023/09/29 07:15:50;;;;;;;21.23;10.87;;;17.60;99.90;;;;;;4994559;28;20669;-66
2023/09/29 07:18:19;;;;;;;15.80;12.07;;;17.60;99.90;;;;;;4994218;28;20196;-66
2023/09/29 07:20:45;;;;;;;17.30;12.20;;;17.60;99.90;;;;;;4976643;28;20208;-68
2023/09/29 07:23:11;;;;;;;14.67;12.77;;;17.60;99.90;;;;;;4976905;28;20768;-68
2023/09/29 07:25:37;;;;;;;16.03;12.83;;;17.60;99.90;;;;;;4994310;28;20530;-66
2023/09/29 07:28:13;;;;;;;17.17;12.50;;;17.70;99.90;;;;;;4994160;28;20233;-69
2023/09/29 07:30:44;;;;;;;16.73;11.33;;;17.70;99.90;;;;;;4993068;28;20399;-69
2023/09/29 07:33:10;;;;;;;17.93;12.40;;;17.70;99.90;;;;;;4993551;28;20407;-67
2023/09/29 07:35:37;;;;;;;15.70;13.20;;;17.70;99.90;;;;;;4976815;28;20495;-68
2023/09/29 07:38:03;;;;;;;14.23;12.43;;;17.70;99.90;;;;;;4976725;28;20420;-66
2023/09/29 07:40:29;;;;;;;18.53;13.50;;;17.80;99.90;;;;;;4993197;28;20463;-68
2023/09/29 07:42:55;;;;;;;16.73;13.87;;;17.80;99.90;;;;;;4993829;28;20495;-67
2023/09/29 07:45:21;;;;;;;18.10;13.30;;;17.80;99.90;;;;;;4993822;28;21024;-68
2023/09/29 07:47:47;;;;;;;19.50;13.10;;;17.80;99.90;;;;;;4985940;28;20211;-68
2023/09/29 07:50:13;;;;;;;16.67;12.63;;;17.90;99.90;;;;;;4993369;28;20498;-68
2023/09/29 07:52:39;;;;;;;16.03;12.00;;;17.90;99.90;;;;;;4993066;28;20449;-69
2023/09/29 07:55:09;;;;;;;15.03;13.53;;;18.00;99.90;;;;;;4993905;28;20426;-69
2023/09/29 07:57:35;;;;;;;13.97;12.50;;;18.00;99.90;;;;;;4994203;28;20450;-67
2023/09/29 08:00:03;;;;;;;19.10;15.00;;;18.00;99.90;;;;;;4993164;28;20404;-68
2023/09/29 08:02:29;;;;;;;15.40;13.90;;;18.10;99.90;;;;;;4993858;28;20527;-66
2023/09/29 08:04:55;;;;;;;20.30;13.10;;;18.10;99.90;;;;;;4991838;28;20460;-75
2023/09/29 08:07:22;;;;;;;12.90;11.60;;;18.20;99.90;;;;;;4991448;28;20180;-66
2023/09/29 08:09:48;;;;;;;14.50;12.97;;;18.20;99.90;;;;;;4987148;28;20439;-69
2023/09/29 08:12:14;;;;;;;15.63;13.13;;;18.20;99.90;;;;;;4992398;28;20510;-68
2023/09/29 08:14:41;;;;;;;14.80;13.30;;;18.20;99.90;;;;;;4973855;28;20436;-68
2023/09/29 08:17:10;;;;;;;16.43;14.77;;;18.20;99.90;;;;;;4992460;28;20494;-70
2023/09/29 08:19:36;;;;;;;16.23;13.10;;;18.20;99.90;;;;;;4989148;28;20940;-67
2023/09/29 08:22:02;;;;;;;15.10;13.20;;;18.20;99.90;;;;;;4989076;28;20463;-66
2023/09/29 08:24:31;;;;;;;14.63;13.20;;;18.30;99.90;;;;;;4987746;28;20459;-68
2023/09/29 08:26:56;;;;;;;18.97;15.20;;;18.30;99.90;;;;;;4992861;28;20446;-68
2023/09/29 08:29:23;;;;;;;17.47;14.70;;;18.30;99.90;;;;;;4991611;28;20535;-67
2023/09/29 08:31:53;;;;;;;15.63;13.90;;;18.30;99.90;;;;;;4991841;28;20205;-68
2023/09/29 08:34:19;;;;;;;15.23;13.70;;;18.30;99.90;;;;;;4975976;28;20485;-68
2023/09/29 08:36:45;;;;;;;19.07;13.63;;;18.30;99.90;;;;;;4992346;28;20452;-68
2023/09/29 08:39:11;;;;;;;18.37;15.43;;;18.30;99.90;;;;;;4991445;28;20443;-69
2023/09/29 08:41:45;;;;;;;19.00;14.43;;;18.30;99.90;;;;;;4990775;28;20428;-72
2023/09/29 08:44:13;;;;;;;21.80;13.73;;;18.30;99.90;;;;;;4990125;28;20668;-76
2023/09/29 08:46:41;;;;;;;17.90;13.53;;;18.40;99.90;;;;;;4990683;28;20512;-69
2023/09/29 08:49:08;;;;;;;15.77;13.93;;;18.40;99.90;;;;;;4990849;28;20913;-73
2023/09/29 08:51:46;;;;;;;;;;;;;;;;;;;;;
2023/09/29 08:54:14;;;;;;;16.40;13.63;;;18.40;99.90;;;;;;4984126;28;20439;-67
2023/09/29 08:56:40;;;;;;;18.33;15.87;;;18.40;99.90;;;;;;4992860;28;20800;-69
2023/09/29 08:59:06;;;;;;;14.83;13.03;;;18.40;99.90;;;;;;4997030;28;20404;-67
2023/09/29 09:01:32;;;;;;;15.20;13.60;;;18.50;99.90;;;;;;4991114;28;20224;-70
2023/09/29 09:03:58;;;;;;;14.70;13.03;;;18.50;99.90;;;;;;4994624;28;20440;-67
2023/09/29 09:06:26;;;;;;;20.10;14.60;;;18.50;99.90;;;;;;4996008;28;20177;-67
2023/09/29 09:08:54;;;;;;;16.57;13.53;;;18.60;99.90;;;;;;4977321;28;20523;-66
2023/09/29 09:11:20;;;;;;;20.40;14.30;;;18.50;99.90;;;;;;4994799;28;20454;-67
2023/09/29 09:14:04;;;;;;;15.57;13.47;;;18.60;99.90;;;;;;4994858;28;20762;-69
2023/09/29 09:16:40;;;;;;;17.87;13.47;;;18.60;99.90;;;;;;4989591;28;20471;-68
2023/09/29 09:19:10;;;;;;;15.30;13.20;;;18.60;99.90;;;;;;4989742;28;20431;-67
2023/09/29 09:21:37;;;;;;;15.67;13.47;;;18.70;99.90;;;;;;4991465;28;20453;-69
2023/09/29 09:24:16;;;;;;;14.40;12.93;;;18.70;99.90;;;;;;4992968;28;20436;-68
2023/09/29 09:26:42;;;;;;;15.10;12.53;;;18.80;99.90;;;;;;4993240;28;20523;-68
2023/09/29 09:29:08;;;;;;;17.90;13.23;;;18.80;99.90;;;;;;4975577;28;20531;-69
2023/09/29 09:31:44;;;;;;;17.00;12.50;;;18.90;99.90;;;;;;4972996;28;20244;-69
2023/09/29 09:34:10;;;;;;;13.63;12.20;;;18.90;99.90;;;;;;4989292;28;20944;-69
2023/09/29 09:36:52;;;;;;;14.67;12.87;;;18.90;99.90;;;;;;4992002;28;20431;-67
2023/09/29 09:39:24;;;;;;;17.67;12.40;;;19.00;99.90;;;;;;4992117;28;20177;-69
2023/09/29 09:41:56;;;;;;;15.57;12.23;;;19.10;99.90;;;;;;4994461;28;20455;-67
2023/09/29 09:44:22;;;;;;;17.83;13.53;;;19.20;99.90;;;;;;4982515;28;20456;-68
2023/09/29 09:46:53;;;;;;;17.53;12.20;;;19.30;99.90;;;;;;4983654;28;20841;-67
2023/09/29 09:49:29;;;;;;;16.23;11.20;;;19.50;99.90;;;;;;4994492;28;20824;-68
2023/09/29 09:52:05;;;;;;;17.10;13.33;;;19.50;99.90;;;;;;4987510;28;20454;-67
2023/09/29 09:54:39;;;;;;;16.00;11.50;;;19.70;99.90;;;;;;4993531;28;20856;-67
2023/09/29 09:57:10;;;;;;;16.10;11.53;;;19.70;99.90;;;;;;4994737;28;20451;-66
2023/09/29 09:59:36;;;;;;;13.03;10.67;;;19.90;99.90;;;;;;4995120;28;20495;-69
2023/09/29 10:02:06;;;;;;;14.07;11.57;;;20.20;99.90;;;;;;4995731;28;20494;-67
2023/09/29 10:04:35;;;;;;;11.53;9.23;;;20.10;99.90;;;;;;4978059;28;21030;-67
2023/09/29 10:07:01;;;;;;;12.90;10.93;;;20.10;99.90;;;;;;4994394;28;20432;-66
2023/09/29 10:09:38;;;;;;;17.20;10.20;;;20.00;96.80;;;;;;4961140;28;20502;-68
2023/09/29 10:12:05;;;;;;;13.83;10.40;;;19.90;95.60;;;;;;4976219;28;20456;-72
2023/09/29 10:14:41;;;;;;;10.00;8.87;;;19.80;95.60;;;;;;4993640;28;20832;-66
2023/09/29 10:17:07;;;;;;;10.67;9.63;;;19.80;95.60;;;;;;4995832;28;20411;-67
2023/09/29 10:19:37;;;;;;;12.03;8.60;;;19.90;95.60;;;;;;4958719;28;20428;-78
2023/09/29 10:22:04;;;;;;;14.40;8.70;;;20.00;95.70;;;;;;4974093;28;20598;-67
2023/09/29 10:24:30;;;;;;;11.30;9.43;;;20.00;95.70;;;;;;4993234;28;20460;-68
2023/09/29 10:26:59;;;;;;;10.30;9.00;;;20.10;92.80;;;;;;4994252;28;20522;-68
2023/09/29 10:29:28;;;;;;;9.53;8.20;;;20.10;81.50;;;;;;4994951;28;20547;-67
2023/09/29 10:32:05;;;;;;;10.43;7.70;;;20.10;76.60;;;;;;4975317;28;20819;-68
2023/09/29 10:34:32;;;;;;;9.30;8.40;;;20.30;80.00;;;;;;4994059;28;20436;-67
2023/09/29 10:36:58;;;;;;;11.10;7.87;;;20.30;62.30;;;;;;4978042;28;20490;-66
2023/09/29 10:39:29;;;;;;;13.93;8.30;;;20.40;56.70;;;;;;4960329;28;20420;-67
2023/09/29 10:42:14;;;;;;;9.43;7.70;;;20.50;42.70;;;;;;4992274;28;20483;-70
2023/09/29 10:44:54;;;;;;;8.70;7.80;;;20.70;36.20;;;;;;4979251;28;20470;-66
2023/09/29 10:47:36;;;;;;;11.10;6.87;;;20.80;28.40;;;;;;4993513;28;20426;-67
2023/09/29 10:50:11;;;;;;;8.17;6.40;;;20.90;15.90;;;;;;4974089;28;20431;-66
2023/09/29 10:52:37;;;;;;;11.70;7.50;;;20.80;1.00;;;;;;4977005;28;20439;-66
2023/09/29 10:55:05;;;;;;;11.57;6.97;;;20.70;1.00;;;;;;4974203;28;20482;-66
2023/09/29 10:57:33;;;;;;;9.90;6.20;;;20.70;1.00;;;;;;4977410;28;20978;-67
2023/09/29 11:00:02;;;;;;;9.30;6.73;;;20.80;1.00;;;;;;4960556;28;20482;-68
2023/09/29 11:02:32;;;;;;;16.37;6.83;;;21.10;1.00;;;;;;4991848;28;20812;-67
2023/09/29 11:05:03;;;;;;;11.77;6.67;;;21.30;1.00;;;;;;4974141;28;20499;-67
2023/09/29 11:07:29;;;;;;;7.77;5.90;;;21.20;1.00;;;;;;4976731;28;20444;-66
2023/09/29 11:09:59;;;;;;;11.87;5.33;;;21.20;1.00;;;;;;4943791;28;20792;-68
2023/09/29 11:12:28;;;;;;;7.23;5.20;;;21.20;1.00;;;;;;4994366;28;20436;-68
2023/09/29 11:15:07;;;;;;;6.97;4.53;;;21.10;1.00;;;;;;4992477;28;20443;-67
2023/09/29 11:17:46;;;;;;;5.63;5.13;;;21.00;1.00;;;;;;4993669;28;20498;-68
2023/09/29 11:20:16;;;;;;;7.70;5.37;;;20.90;1.00;;;;;;4959099;28;20451;-67
2023/09/29 11:22:49;;;;;;;6.20;5.60;;;20.80;1.00;;;;;;4994171;28;20837;-67
2023/09/29 11:25:20;;;;;;;12.57;6.83;;;20.90;1.00;;;;;;4992268;28;20470;-67
2023/09/29 11:27:50;;;;;;;7.83;5.93;;;20.90;1.00;;;;;;4993423;28;20467;-67
2023/09/29 11:30:24;;;;;;;6.83;5.43;;;20.90;1.00;;;;;;4993401;28;20467;-68
2023/09/29 11:32:52;;;;;;;7.43;5.70;;;20.90;1.00;;;;;;4976565;28;20526;-68
2023/09/29 11:35:20;;;;;;;9.00;5.30;;;21.00;1.00;;;;;;4989823;28;20439;-68
2023/09/29 11:37:47;;;;;;;8.57;5.90;;;21.10;1.00;;;;;;4976053;28;20444;-66
2023/09/29 11:40:13;;;;;;;8.43;4.37;;;21.10;1.00;;;;;;4991568;28;20440;-67
2023/09/29 11:42:41;;;;;;;4.93;4.53;;;21.20;1.00;;;;;;4976360;28;20849;-68
2023/09/29 11:45:08;;;;;;;7.00;5.23;;;21.20;1.00;;;;;;4973314;28;20468;-68
2023/09/29 11:47:37;;;;;;;7.60;4.43;;;21.30;1.00;;;;;;4974458;28;20444;-66
2023/09/29 11:50:03;;;;;;;7.60;4.67;;;21.50;1.00;;;;;;4974066;28;20436;-67
2023/09/29 11:52:29;;;;;;;6.20;4.37;;;21.50;1.00;;;;;;4991002;28;20458;-70
2023/09/29 11:54:56;;;;;;;5.30;3.83;;;21.50;1.00;;;;;;4991309;28;20462;-67
2023/09/29 11:57:21;;;;;;;7.90;5.00;;;21.50;1.00;;;;;;4992205;28;20659;-66
2023/09/29 11:59:47;;;;;;;5.83;4.90;;;21.50;1.00;;;;;;4992545;28;20921;-75
2023/09/29 12:02:14;;;;;;;13.57;4.60;;;21.50;1.00;;;;;;4993507;28;20212;-67
2023/09/29 12:04:40;;;;;;;7.57;4.87;;;21.50;1.00;;;;;;4958877;28;20279;-72
2023/09/29 12:07:05;;;;;;;6.03;4.63;;;21.60;1.00;;;;;;4975499;28;20924;-67
2023/09/29 12:09:31;;;;;;;8.20;4.47;;;21.70;1.00;;;;;;4993592;28;20173;-79
2023/09/29 12:12:00;;;;;;;10.80;4.50;;;21.80;1.00;;;;;;4992237;28;20681;-68
2023/09/29 12:14:27;;;;;;;5.40;4.00;;;21.80;1.00;;;;;;4957845;28;20440;-68
2023/09/29 12:16:53;;;;;;;6.93;5.10;;;21.90;1.00;;;;;;4959341;28;20928;-68
2023/09/29 12:19:22;;;;;;;6.47;4.00;;;22.40;1.00;;;;;;4972610;28;20181;-67
2023/09/29 12:21:48;;;;;;;6.00;3.80;;;22.80;1.00;;;;;;4991069;28;20452;-68
2023/09/29 12:24:14;;;;;;;8.17;4.50;;;22.90;1.00;;;;;;4954910;28;20503;-67
2023/09/29 12:26:46;;;;;;;6.13;4.67;;;22.70;1.00;;;;;;4991111;28;20951;-70
2023/09/29 12:29:13;;;;;;;9.03;5.67;;;22.70;1.00;;;;;;4977303;28;20774;-68
2023/09/29 12:31:39;;;;;;;6.00;4.70;;;22.60;1.00;;;;;;4996078;28;20462;-66
2023/09/29 12:34:05;;;;;;;11.93;4.70;;;22.90;1.00;;;;;;4980029;28;20419;-67
2023/09/29 12:36:31;;;;;;;9.70;4.33;;;23.40;1.00;;;;;;4979874;28;20416;-67
2023/09/29 12:38:58;;;;;;;6.33;4.33;;;23.90;1.00;;;;;;4997171;28;20176;-68
2023/09/29 12:41:25;;;;;;;8.90;4.43;;;23.90;1.00;;;;;;4996264;28;20427;-68